createdAt,value
2018-09-19T00:04:22.845Z,2.20
2018-09-19T00:09:16.081Z,2.45
2018-09-19T00:14:09.924Z,2.05
2018-09-19T00:19:03.143Z,2.40
2018-09-19T00:23:56.216Z,2.20
2018-09-19T00:28:49.280Z,2.30
2018-09-19T00:33:42.368Z,2.30
2018-09-19T00:38:35.659Z,2.10
2018-09-19T00:43:29.664Z,2.22
2018-09-19T00:48:22.733Z,1.90
2018-09-19T00:53:15.937Z,2.08
2018-09-19T00:58:09.039Z,2.25
2018-09-19T01:03:02.168Z,2.00
2018-09-19T01:07:55.367Z,2.35
2018-09-19T01:12:48.450Z,1.90
2018-09-19T01:17:41.554Z,2.10
2018-09-19T01:22:34.585Z,2.05
2018-09-19T01:27:27.722Z,2.20
2018-09-19T01:32:20.757Z,2.10
2018-09-19T01:37:13.808Z,1.92
2018-09-19T01:42:07.136Z,1.90
2018-09-19T01:47:00.429Z,1.95
2018-09-19T01:51:54.471Z,2.00
2018-09-19T01:56:47.727Z,2.02
2018-09-19T02:01:40.874Z,2.02
2018-09-19T02:06:33.994Z,2.00
2018-09-19T02:11:27.182Z,1.95
2018-09-19T02:16:22.612Z,2.20
2018-09-19T02:21:15.809Z,1.90
2018-09-19T02:26:08.833Z,2.10
2018-09-19T02:31:01.867Z,2.27
2018-09-19T02:35:55.078Z,1.80
2018-09-19T02:40:48.497Z,2.10
2018-09-19T02:45:41.567Z,1.90
2018-09-19T02:50:34.596Z,2.00
2018-09-19T02:55:27.734Z,1.90
2018-09-19T03:00:21.008Z,1.72
2018-09-19T03:05:14.262Z,2.10
2018-09-19T03:10:07.395Z,1.82
2018-09-19T03:15:00.543Z,1.95
2018-09-19T03:19:53.705Z,2.25
2018-09-19T03:24:46.880Z,1.98
2018-09-19T03:29:39.972Z,1.95
2018-09-19T03:34:33.146Z,2.20
2018-09-19T03:39:26.302Z,1.95
2018-09-19T03:44:19.219Z,2.00
2018-09-19T03:49:12.386Z,2.35
2018-09-19T03:54:05.618Z,2.20
2018-09-19T03:58:59.435Z,2.10
2018-09-19T04:03:53.518Z,3.22
2018-09-19T04:08:47.354Z,2.08
2018-09-19T04:13:41.180Z,2.02
2018-09-19T04:18:34.956Z,2.33
2018-09-19T04:23:29.506Z,2.10
2018-09-19T04:28:24.480Z,2.25
2018-09-19T04:33:17.618Z,2.20
2018-09-19T04:38:12.702Z,2.10
2018-09-19T04:43:08.006Z,2.20
2018-09-19T04:48:06.276Z,2.20
2018-09-19T04:53:00.724Z,1.80
2018-09-19T04:57:59.797Z,2.10
2018-09-19T05:02:57.401Z,2.10
2018-09-19T05:07:51.108Z,2.22
2018-09-19T05:12:45.599Z,2.05
2018-09-19T05:17:39.995Z,2.70
2018-09-19T05:22:38.310Z,2.22
2018-09-19T05:27:33.932Z,2.37
2018-09-19T05:32:30.203Z,2.22
2018-09-19T05:37:24.301Z,1.80
2018-09-19T05:42:17.852Z,1.90
2018-09-19T05:47:11.595Z,1.90
2018-09-19T05:52:08.651Z,2.02
2018-09-19T05:57:02.975Z,1.85
2018-09-19T06:01:57.487Z,1.90
2018-09-19T06:06:53.442Z,1.98
2018-09-19T06:11:47.767Z,2.08
2018-09-19T06:16:41.293Z,2.58
2018-09-19T06:21:35.860Z,2.17
2018-09-19T06:26:33.346Z,2.40
2018-09-19T06:31:29.003Z,2.50
2018-09-19T06:36:22.816Z,2.33
2018-09-19T06:41:16.854Z,2.80
2018-09-19T06:46:14.963Z,2.00
2018-09-19T06:51:09.614Z,2.00
2018-09-19T06:56:03.754Z,2.22
2018-09-19T07:00:56.884Z,2.45
2018-09-19T07:05:51.617Z,2.52
2018-09-19T07:10:46.187Z,2.62
2018-09-19T07:15:39.839Z,3.90
2018-09-19T07:20:33.148Z,2.20
2018-09-19T07:25:28.915Z,1.80
2018-09-19T07:30:24.824Z,2.10
2018-09-19T07:35:22.421Z,2.20
2018-09-19T07:40:15.761Z,2.00
2018-09-19T07:45:12.033Z,2.50
2018-09-19T07:50:05.639Z,2.00
2018-09-19T07:54:59.097Z,2.10
2018-09-19T07:59:56.365Z,2.00
2018-09-19T08:04:50.298Z,2.10
2018-09-19T08:09:44.296Z,1.60
2018-09-19T08:14:37.907Z,1.90
2018-09-19T08:19:32.740Z,1.90
2018-09-19T08:24:26.548Z,2.33
2018-09-19T08:29:19.759Z,2.15
2018-09-19T08:34:13.720Z,1.75
2018-09-19T08:39:08.705Z,2.00
2018-09-19T08:44:02.296Z,1.70
2018-09-19T08:48:55.424Z,1.92
2018-09-19T08:53:53.514Z,2.65
2018-09-19T08:58:47.295Z,2.40
2018-09-19T09:03:40.831Z,2.08
2018-09-19T09:08:35.453Z,1.87
2018-09-19T09:13:29.639Z,2.12
2018-09-19T09:18:23.877Z,1.65
2018-09-19T09:23:18.285Z,2.37
2018-09-19T09:28:18.833Z,2.00
2018-09-19T09:33:12.218Z,1.65
2018-09-19T09:38:07.412Z,1.62
2018-09-19T09:43:00.585Z,1.60
2018-09-19T09:47:55.006Z,1.87
2018-09-19T09:52:49.595Z,1.75
2018-09-19T09:57:42.818Z,1.67
2018-09-19T10:02:40.110Z,1.60
2018-09-19T10:07:35.518Z,1.98
2018-09-19T10:12:29.270Z,2.50
2018-09-19T10:17:23.250Z,1.80
2018-09-19T10:22:16.771Z,1.62
2018-09-19T10:27:10.979Z,1.75
2018-09-19T10:32:04.203Z,2.17
2018-09-19T10:36:57.294Z,1.70
2018-09-19T10:41:50.692Z,1.50
2018-09-19T10:46:44.531Z,1.67
2018-09-19T10:51:40.428Z,2.20
2018-09-19T10:56:34.307Z,1.57
2018-09-19T11:01:27.645Z,1.92
2018-09-19T11:06:20.994Z,2.37
2018-09-19T11:11:14.187Z,1.92
2018-09-19T11:16:14.956Z,2.00
2018-09-19T11:21:09.340Z,1.60
2018-09-19T11:26:06.602Z,1.90
2018-09-19T11:31:01.592Z,1.60
2018-09-19T11:36:00.714Z,1.82
2018-09-19T11:40:55.947Z,2.08
2018-09-19T11:45:54.060Z,1.90
2018-09-19T11:50:48.351Z,2.20
2018-09-19T11:55:45.267Z,1.70
2018-09-19T12:00:42.377Z,1.80
2018-09-19T12:05:36.739Z,1.60
2018-09-19T12:10:31.099Z,1.85
2018-09-19T12:15:24.968Z,2.00
2018-09-19T12:20:19.680Z,1.92
2018-09-19T12:25:17.688Z,2.55
2018-09-19T12:30:13.988Z,1.90
2018-09-19T12:35:07.070Z,1.67
2018-09-19T12:40:00.454Z,2.37
2018-09-19T12:44:54.101Z,2.10
2018-09-19T12:49:48.594Z,1.70
2018-09-19T12:54:41.785Z,2.45
2018-09-19T12:59:35.327Z,2.80
2018-09-19T13:04:31.556Z,2.40
2018-09-19T13:09:24.694Z,2.10
2018-09-19T13:14:18.934Z,2.60
2018-09-19T13:19:18.099Z,2.42
2018-09-19T13:24:11.939Z,2.12
2018-09-19T13:29:05.724Z,2.37
2018-09-19T13:33:59.589Z,2.10
2018-09-19T13:38:52.838Z,1.92
2018-09-19T13:43:46.732Z,2.10
2018-09-19T13:48:42.645Z,2.20
2018-09-19T13:53:36.431Z,2.35
2018-09-19T13:58:30.496Z,2.52
2018-09-19T14:03:24.541Z,2.27
2018-09-19T14:08:21.723Z,2.42
2018-09-19T14:13:16.336Z,2.75
2018-09-19T14:18:17.404Z,2.40
2018-09-19T14:23:13.655Z,2.33
2018-09-19T14:28:07.500Z,2.40
2018-09-19T14:33:05.678Z,2.90
2018-09-19T14:38:06.278Z,2.20
2018-09-19T14:43:02.123Z,2.58
2018-09-19T14:48:00.256Z,2.22
2018-09-19T14:52:55.217Z,2.22
2018-09-19T14:57:49.064Z,2.10
2018-09-19T15:02:42.375Z,2.20
2018-09-19T15:07:36.416Z,1.98
2018-09-19T15:12:30.531Z,2.30
2018-09-19T15:17:29.516Z,2.60
2018-09-19T15:22:27.041Z,2.30
2018-09-19T15:32:24.236Z,1.80
2018-09-19T15:37:22.236Z,2.12
2018-09-19T15:42:19.684Z,2.37
2018-09-19T15:47:13.808Z,2.20
2018-09-19T15:52:08.793Z,2.35
2018-09-19T15:57:04.308Z,2.25
2018-09-19T16:02:02.661Z,2.30
2018-09-19T16:06:57.566Z,2.60
2018-09-19T16:11:55.992Z,2.30
2018-09-19T16:16:49.359Z,2.33
2018-09-19T16:21:48.624Z,2.65
2018-09-19T16:26:41.965Z,2.12
2018-09-19T16:31:36.044Z,2.00
2018-09-19T16:36:29.966Z,2.62
2018-09-19T16:41:23.336Z,2.42
2018-09-19T16:46:18.107Z,2.67
2018-09-19T16:51:13.532Z,2.30
2018-09-19T16:56:06.739Z,2.55
2018-09-19T17:01:00.339Z,2.90
2018-09-19T17:05:54.775Z,2.90
2018-09-19T17:10:47.938Z,2.50
2018-09-19T17:15:43.143Z,2.70
2018-09-19T17:20:36.779Z,2.70
2018-09-19T17:25:30.414Z,2.60
2018-09-19T17:30:23.457Z,2.37
2018-09-19T17:35:18.766Z,2.67
2018-09-19T17:40:12.549Z,2.55
2018-09-19T17:45:05.707Z,3.40
2018-09-19T17:49:58.771Z,2.47
2018-09-19T17:54:52.943Z,2.65
2018-09-19T17:59:46.036Z,2.37
2018-09-19T18:04:40.039Z,2.35
2018-09-19T18:09:33.294Z,2.98
2018-09-19T18:14:26.362Z,2.02
2018-09-19T18:19:19.327Z,2.60
2018-09-19T18:24:12.639Z,2.30
2018-09-19T18:29:06.242Z,2.80
2018-09-19T18:33:59.566Z,2.30
2018-09-19T18:38:53.237Z,2.20
2018-09-19T18:43:46.565Z,2.30
2018-09-19T18:48:39.854Z,3.08
2018-09-19T18:53:33.064Z,2.70
2018-09-19T18:58:33.644Z,2.77
2018-09-19T19:03:27.095Z,2.50
2018-09-19T19:08:23.849Z,2.62
2018-09-19T19:13:17.130Z,3.27
2018-09-19T19:18:10.174Z,3.90
2018-09-19T19:23:03.768Z,3.52
2018-09-19T19:27:56.847Z,5.22
2018-09-19T19:32:49.947Z,2.92
2018-09-19T19:37:43.029Z,3.50
2018-09-19T19:42:36.525Z,2.90
2018-09-19T19:47:29.582Z,3.00
2018-09-19T19:52:22.656Z,3.10
2018-09-19T19:57:15.874Z,3.12
2018-09-19T20:02:09.183Z,2.83
2018-09-19T20:07:04.779Z,2.90
2018-09-19T20:11:57.932Z,3.83
2018-09-19T20:16:50.967Z,2.95
2018-09-19T20:21:44.073Z,2.80
2018-09-19T20:26:37.078Z,3.00
2018-09-19T20:31:30.130Z,2.83
2018-09-19T20:36:34.547Z,2.95
2018-09-19T20:41:30.905Z,2.87
2018-09-19T20:46:30.336Z,2.60
2018-09-19T21:01:36.659Z,2.92
2018-09-19T21:11:38.322Z,3.00
2018-09-19T21:21:52.059Z,3.10
2018-09-19T21:31:50.750Z,3.30
2018-09-19T21:36:43.780Z,3.30
2018-09-19T21:41:37.182Z,4.87
2018-09-19T21:46:30.366Z,3.15
2018-09-19T21:51:23.982Z,3.12
2018-09-19T21:56:17.176Z,3.08
2018-09-19T22:01:11.042Z,3.47
2018-09-19T22:06:04.165Z,3.55
2018-09-19T22:10:57.392Z,3.00
2018-09-19T22:15:50.368Z,3.20
2018-09-19T22:20:43.680Z,3.08
2018-09-19T22:25:36.618Z,3.52
2018-09-19T22:30:29.667Z,3.00
2018-09-19T22:35:22.675Z,3.00
2018-09-19T22:40:15.691Z,3.00
2018-09-19T22:45:08.735Z,2.80
2018-09-19T22:50:01.857Z,3.17
2018-09-19T22:54:54.895Z,3.40
2018-09-19T22:59:48.084Z,2.65
2018-09-19T23:04:41.191Z,3.02
2018-09-19T23:09:34.394Z,3.17
2018-09-19T23:14:27.459Z,3.30
2018-09-19T23:19:20.495Z,3.30
2018-09-19T23:24:13.558Z,3.20
2018-09-19T23:29:06.944Z,3.30
2018-09-19T23:34:00.096Z,3.15
2018-09-19T23:38:53.202Z,3.12
2018-09-19T23:43:46.259Z,3.05
2018-09-19T23:48:39.411Z,3.33
2018-09-19T23:53:32.474Z,3.30
2018-09-19T23:58:25.499Z,3.62
